createdAt,value
2022-12-04T00:02:23.251Z,1.85
2022-12-04T00:07:27.861Z,1.85
2022-12-04T00:12:31.839Z,1.87
2022-12-04T00:17:35.296Z,1.87
2022-12-04T00:22:39.332Z,1.89
2022-12-04T00:27:42.777Z,1.95
2022-12-04T00:32:46.898Z,1.96
2022-12-04T00:37:50.223Z,1.94
2022-12-04T00:42:57.988Z,1.93
2022-12-04T00:48:04.079Z,1.95
2022-12-04T00:53:30.590Z,1.98
2022-12-04T00:58:38.489Z,2.03
2022-12-04T01:03:43.834Z,2.02
2022-12-04T01:08:48.417Z,2.01
2022-12-04T01:13:51.851Z,2.01
2022-12-04T01:18:55.423Z,2.02
2022-12-04T01:24:01.204Z,2.02
2022-12-04T01:29:04.891Z,2.01
2022-12-04T01:34:10.537Z,1.99
2022-12-04T01:39:13.991Z,1.98
2022-12-04T01:44:17.219Z,1.97
2022-12-04T01:49:29.483Z,1.93
2022-12-04T01:54:40.190Z,1.88
2022-12-04T01:59:49.133Z,1.75
2022-12-04T02:04:55.043Z,1.60
2022-12-04T02:10:06.654Z,1.43
2022-12-04T02:15:18.118Z,1.28
2022-12-04T02:20:37.400Z,1.14
2022-12-04T02:26:01.809Z,1.05
2022-12-04T02:31:08.558Z,0.98
2022-12-04T02:36:27.651Z,0.97
2022-12-04T02:41:45.642Z,1.02
2022-12-04T02:46:53.239Z,1.06
2022-12-04T02:51:58.051Z,1.08
2022-12-04T02:57:04.932Z,1.19
2022-12-04T03:02:44.386Z,1.26
2022-12-04T03:08:06.636Z,1.28
2022-12-04T03:13:14.641Z,1.32
2022-12-04T03:18:37.470Z,1.37
2022-12-04T03:23:55.984Z,1.33
2022-12-04T03:29:30.610Z,1.26
2022-12-04T03:34:56.866Z,1.17
2022-12-04T03:40:10.435Z,1.10
2022-12-04T03:45:30.075Z,1.05
2022-12-04T03:50:37.932Z,0.99
2022-12-04T03:55:41.454Z,0.90
2022-12-04T04:00:47.299Z,0.79
2022-12-04T04:05:54.719Z,0.71
2022-12-04T04:11:11.559Z,0.66
2022-12-04T04:16:35.890Z,0.58
2022-12-04T04:21:59.056Z,0.54
2022-12-04T04:27:05.642Z,0.56
2022-12-04T04:32:13.911Z,0.62
2022-12-04T04:37:39.238Z,0.70
2022-12-04T04:43:04.591Z,0.78
2022-12-04T04:48:16.036Z,0.88
2022-12-04T04:53:28.907Z,0.95
2022-12-04T04:58:35.984Z,1.03
2022-12-04T05:03:41.054Z,1.06
2022-12-04T05:08:44.631Z,1.06
2022-12-04T05:13:47.867Z,1.06
2022-12-04T05:19:12.944Z,1.08
2022-12-04T05:24:17.591Z,1.09
2022-12-04T05:29:21.129Z,1.06
2022-12-04T05:34:24.433Z,0.99
2022-12-04T05:39:28.056Z,0.96
2022-12-04T05:44:31.515Z,0.87
2022-12-04T05:49:35.415Z,0.82
2022-12-04T05:54:40.155Z,0.82
2022-12-04T05:59:47.693Z,0.74
2022-12-04T06:04:51.050Z,0.68
2022-12-04T06:09:55.849Z,0.73
2022-12-04T06:14:59.732Z,0.79
2022-12-04T06:20:11.929Z,0.92
2022-12-04T06:25:15.649Z,0.96
2022-12-04T06:30:19.813Z,0.87
2022-12-04T06:35:24.548Z,0.81
2022-12-04T06:40:27.974Z,0.67
2022-12-04T06:45:31.521Z,0.64
2022-12-04T06:50:36.453Z,0.66
2022-12-04T06:55:40.519Z,0.74
2022-12-04T07:00:47.416Z,0.94
2022-12-04T07:05:55.743Z,1.18
2022-12-04T07:11:02.952Z,1.42
2022-12-04T07:16:12.408Z,1.59
2022-12-04T07:21:19.173Z,1.71
2022-12-04T07:26:24.051Z,1.82
2022-12-04T07:31:30.597Z,1.98
2022-12-04T07:36:36.888Z,2.14
2022-12-04T07:41:43.100Z,2.31
2022-12-04T07:46:47.974Z,2.48
2022-12-04T07:51:53.052Z,2.62
2022-12-04T07:56:56.260Z,2.70
2022-12-04T08:01:59.648Z,2.72
2022-12-04T08:07:03.604Z,2.79
2022-12-04T08:12:08.762Z,2.87
2022-12-04T08:17:24.229Z,2.98
2022-12-04T08:22:29.756Z,3.10
2022-12-04T08:27:36.654Z,3.26
2022-12-04T08:32:49.788Z,3.42
2022-12-04T08:38:01.091Z,3.62
2022-12-04T08:43:41.292Z,3.79
2022-12-04T08:48:52.342Z,3.85
2022-12-04T08:54:10.131Z,3.93
2022-12-04T08:59:35.791Z,4.04
2022-12-04T09:04:41.686Z,4.22
2022-12-04T09:09:48.561Z,4.37
2022-12-04T09:14:54.697Z,4.52
2022-12-04T09:20:01.368Z,4.61
2022-12-04T09:25:08.410Z,4.73
2022-12-04T09:30:16.093Z,4.97
2022-12-04T09:35:23.261Z,5.27
2022-12-04T09:40:38.351Z,5.57
2022-12-04T09:45:54.541Z,5.85
2022-12-04T09:51:00.737Z,6.13
2022-12-04T09:56:13.712Z,6.45
2022-12-04T10:01:57.732Z,6.64
2022-12-04T10:07:57.027Z,6.79
2022-12-04T10:13:30.976Z,6.86
2022-12-04T10:19:27.178Z,6.79
2022-12-04T10:25:18.917Z,6.75
2022-12-04T10:30:32.697Z,6.80
2022-12-04T10:35:51.030Z,6.81
2022-12-04T10:41:31.997Z,6.85
2022-12-04T10:46:53.398Z,6.96
2022-12-04T10:52:23.911Z,7.13
2022-12-04T10:58:07.160Z,7.35
2022-12-04T11:03:29.708Z,7.54
2022-12-04T11:08:56.646Z,7.71
2022-12-04T11:14:29.357Z,7.76
2022-12-04T11:19:39.146Z,7.76
2022-12-04T11:24:56.009Z,7.77
2022-12-04T11:30:24.531Z,7.79
2022-12-04T11:36:06.800Z,7.85
2022-12-04T11:41:33.047Z,7.84
2022-12-04T11:46:39.408Z,7.78
2022-12-04T11:52:43.576Z,7.79
2022-12-04T11:58:39.537Z,7.68
2022-12-04T12:04:38.382Z,7.57
2022-12-04T12:10:17.927Z,7.42
2022-12-04T12:15:42.408Z,7.22
2022-12-04T12:21:33.872Z,7.10
2022-12-04T12:27:22.207Z,6.94
2022-12-04T12:33:04.955Z,6.77
2022-12-04T12:38:34.156Z,6.63
2022-12-04T12:43:49.937Z,6.55
2022-12-04T12:49:23.615Z,6.52
2022-12-04T12:54:51.369Z,6.48
2022-12-04T13:00:26.369Z,6.44
2022-12-04T13:06:05.288Z,6.35
2022-12-04T13:11:32.904Z,6.26
2022-12-04T13:17:06.824Z,6.18
2022-12-04T13:22:35.113Z,6.05
2022-12-04T13:28:35.737Z,5.93
2022-12-04T13:34:11.594Z,5.80
2022-12-04T13:39:55.446Z,5.66
2022-12-04T13:45:43.930Z,5.51
2022-12-04T13:51:17.757Z,5.33
2022-12-04T13:56:33.222Z,5.18
2022-12-04T14:01:52.856Z,5.04
2022-12-04T14:07:05.351Z,4.91
2022-12-04T14:12:23.522Z,4.79
2022-12-04T14:18:10.908Z,4.68
2022-12-04T14:23:36.069Z,4.53
2022-12-04T14:29:35.315Z,4.37
2022-12-04T14:34:51.370Z,4.19
2022-12-04T14:40:24.519Z,4.01
2022-12-04T14:45:50.624Z,3.85
2022-12-04T14:51:09.472Z,3.71
2022-12-04T14:57:24.052Z,3.55
2022-12-04T15:02:35.671Z,3.40
2022-12-04T15:07:51.217Z,3.28
2022-12-04T15:13:41.408Z,3.15
2022-12-04T15:19:11.076Z,3.02
2022-12-04T15:24:24.798Z,2.89
2022-12-04T15:29:38.357Z,2.81
2022-12-04T15:34:52.850Z,2.73
2022-12-04T15:39:58.293Z,2.63
2022-12-04T15:45:23.260Z,2.53
2022-12-04T15:50:30.838Z,2.46
2022-12-04T15:55:58.160Z,2.37
2022-12-04T16:01:17.551Z,2.29
2022-12-04T16:06:30.045Z,2.23
2022-12-04T16:11:41.437Z,2.17
2022-12-04T16:17:05.517Z,2.09
2022-12-04T16:22:20.523Z,2.06
2022-12-04T16:27:27.511Z,2.01
2022-12-04T16:32:40.238Z,1.98
2022-12-04T16:37:44.130Z,1.94
2022-12-04T16:42:51.535Z,1.91
2022-12-04T16:47:55.338Z,1.86
2022-12-04T16:52:59.106Z,1.83
2022-12-04T16:58:05.558Z,1.81
2022-12-04T17:03:27.679Z,1.77
2022-12-04T17:08:52.511Z,1.72
2022-12-04T17:13:57.914Z,1.71
2022-12-04T17:19:05.584Z,1.69
2022-12-04T17:24:10.111Z,1.67
2022-12-04T17:29:16.256Z,1.63
2022-12-04T17:34:21.876Z,1.60
2022-12-04T17:39:30.147Z,1.59
2022-12-04T17:44:34.704Z,1.54
2022-12-04T17:49:42.686Z,1.52
2022-12-04T17:55:08.870Z,1.51
2022-12-04T18:00:17.889Z,1.49
2022-12-04T18:05:34.511Z,1.44
2022-12-04T18:10:58.374Z,1.41
2022-12-04T18:16:10.321Z,1.41
2022-12-04T18:21:24.756Z,1.40
2022-12-04T18:26:37.149Z,1.43
2022-12-04T18:32:00.347Z,1.49
2022-12-04T18:37:09.005Z,1.57
2022-12-04T18:42:19.415Z,1.64
2022-12-04T18:47:23.178Z,1.71
2022-12-04T18:52:27.824Z,1.80
2022-12-04T18:57:36.449Z,1.89
2022-12-04T19:02:40.646Z,1.97
2022-12-04T19:07:45.067Z,2.05
2022-12-04T19:12:56.496Z,2.10
2022-12-04T19:18:06.641Z,2.14
2022-12-04T19:23:14.103Z,2.17
2022-12-04T19:28:42.951Z,2.21
2022-12-04T19:34:01.661Z,2.23
2022-12-04T19:39:26.012Z,2.24
2022-12-04T19:45:13.150Z,2.25
2022-12-04T19:50:30.902Z,2.27
2022-12-04T19:55:54.901Z,2.29
2022-12-04T20:01:07.163Z,2.29
2022-12-04T20:06:20.316Z,2.30
2022-12-04T20:11:32.427Z,2.32
2022-12-04T20:16:38.076Z,2.32
2022-12-04T20:21:44.437Z,2.32
2022-12-04T20:26:48.167Z,2.35
2022-12-04T20:32:00.208Z,2.37
2022-12-04T20:37:28.456Z,2.38
2022-12-04T20:42:48.252Z,2.38
2022-12-04T20:47:55.721Z,2.39
2022-12-04T20:52:59.476Z,2.37
2022-12-04T20:58:03.021Z,2.36
2022-12-04T21:03:07.278Z,2.36
2022-12-04T21:08:16.357Z,2.35
2022-12-04T21:13:40.913Z,2.35
2022-12-04T21:18:59.251Z,2.37
2022-12-04T21:24:09.519Z,2.35
2022-12-04T21:29:15.075Z,2.36
2022-12-04T21:34:22.918Z,2.37
2022-12-04T21:39:27.155Z,2.37
2022-12-04T21:44:32.045Z,2.35
2022-12-04T21:49:35.450Z,2.36
2022-12-04T21:54:39.105Z,2.36
2022-12-04T21:59:42.641Z,2.35
2022-12-04T22:04:51.175Z,2.36
2022-12-04T22:09:55.948Z,2.37
2022-12-04T22:15:04.097Z,2.38
2022-12-04T22:20:09.357Z,2.38
2022-12-04T22:25:21.409Z,2.38
2022-12-04T22:30:38.424Z,2.38
2022-12-04T22:35:52.202Z,2.38
2022-12-04T22:41:01.543Z,2.37
2022-12-04T22:46:10.910Z,2.37
2022-12-04T22:51:33.365Z,2.38
2022-12-04T22:56:43.534Z,2.37
2022-12-04T23:01:48.577Z,2.37
2022-12-04T23:06:52.766Z,2.36
2022-12-04T23:11:57.081Z,2.34
2022-12-04T23:17:06.291Z,2.34
2022-12-04T23:22:11.333Z,2.35
2022-12-04T23:27:16.870Z,2.37
2022-12-04T23:32:21.397Z,2.39
2022-12-04T23:37:27.716Z,2.41
2022-12-04T23:42:32.810Z,2.43
2022-12-04T23:47:38.726Z,2.44
2022-12-04T23:52:42.369Z,2.44
2022-12-04T23:57:47.584Z,2.46
